createdAt,value
2023-04-02T00:00:23.772Z,74.02
2023-04-02T00:04:08.944Z,73.85
2023-04-02T00:06:46.382Z,73.64
2023-04-02T00:09:40.277Z,73.83
2023-04-02T00:12:32.250Z,73.92
2023-04-02T00:15:24.261Z,73.87
2023-04-02T00:18:19.138Z,73.86
2023-04-02T00:21:19.887Z,73.95
2023-04-02T00:24:17.312Z,73.81
2023-04-02T00:27:15.028Z,73.88
2023-04-02T00:30:08.771Z,73.82
2023-04-02T00:32:43.689Z,73.80
2023-04-02T00:35:40.036Z,73.90
2023-04-02T00:38:34.681Z,73.89
2023-04-02T00:41:29.739Z,73.88
2023-04-02T00:44:23.702Z,73.94
2023-04-02T00:47:20.157Z,73.83
2023-04-02T00:50:29.794Z,73.83
2023-04-02T00:53:28.770Z,73.89
2023-04-02T00:56:04.546Z,73.85
2023-04-02T00:58:51.977Z,73.89
2023-04-02T01:01:44.308Z,74.05
2023-04-02T01:04:37.129Z,73.97
2023-04-02T01:07:44.796Z,73.93
2023-04-02T01:10:56.117Z,74.04
2023-04-02T01:13:58.696Z,73.92
2023-04-02T01:17:00.504Z,73.91
2023-04-02T01:20:18.596Z,73.89
2023-04-02T01:22:59.817Z,74.02
2023-04-02T01:25:58.928Z,73.98
2023-04-02T01:29:11.794Z,73.70
2023-04-02T01:32:07.734Z,73.70
2023-04-02T01:35:01.264Z,73.74
2023-04-02T01:37:59.466Z,73.75
2023-04-02T01:41:00.603Z,73.84
2023-04-02T01:43:59.371Z,73.86
2023-04-02T01:46:52.014Z,73.73
2023-04-02T01:49:44.918Z,73.70
2023-04-02T01:52:44.311Z,73.81
2023-04-02T01:55:43.257Z,73.60
2023-04-02T01:58:35.741Z,73.53
2023-04-02T02:01:33.044Z,73.35
2023-04-02T02:04:25.546Z,73.45
2023-04-02T02:07:20.538Z,73.43
2023-04-02T02:10:18.274Z,73.24
2023-04-02T02:13:16.769Z,73.26
2023-04-02T02:16:14.800Z,73.30
2023-04-02T02:19:07.704Z,73.22
2023-04-02T02:22:08.897Z,73.46
2023-04-02T02:25:05.213Z,73.24
2023-04-02T02:28:03.716Z,73.20
2023-04-02T02:30:58.526Z,73.25
2023-04-02T02:33:54.143Z,73.33
2023-04-02T02:36:54.556Z,73.23
2023-04-02T02:39:51.490Z,73.13
2023-04-02T02:42:49.052Z,73.08
2023-04-02T02:45:44.026Z,72.96
2023-04-02T02:48:40.659Z,73.01
2023-04-02T02:51:56.244Z,72.75
2023-04-02T02:54:52.474Z,72.83
2023-04-02T02:57:49.137Z,72.92
2023-04-02T03:00:41.767Z,72.77
2023-04-02T03:03:36.117Z,73.00
2023-04-02T03:06:28.213Z,72.93
2023-04-02T03:09:30.244Z,73.07
2023-04-02T03:12:37.633Z,72.92
2023-04-02T03:15:36.326Z,72.92
2023-04-02T03:18:39.422Z,72.86
2023-04-02T03:21:36.259Z,72.96
2023-04-02T03:24:53.506Z,72.97
2023-04-02T03:27:49.356Z,73.12
2023-04-02T03:30:45.797Z,73.13
2023-04-02T03:33:41.902Z,73.06
2023-04-02T03:36:43.704Z,72.78
2023-04-02T03:39:41.255Z,72.81
2023-04-02T03:42:42.922Z,73.01
2023-04-02T03:45:41.167Z,72.93
2023-04-02T03:48:25.845Z,73.01
2023-04-02T03:51:23.664Z,73.00
2023-04-02T03:54:18.331Z,72.89
2023-04-02T03:57:19.556Z,73.05
2023-04-02T04:00:20.752Z,73.02
2023-04-02T04:03:16.598Z,73.12
2023-04-02T04:06:16.496Z,73.12
2023-04-02T04:09:17.333Z,73.07
2023-04-02T04:12:20.643Z,73.13
2023-04-02T04:15:21.888Z,73.16
2023-04-02T04:18:24.807Z,73.26
2023-04-02T04:21:29.890Z,73.28
2023-04-02T04:24:24.747Z,73.24
2023-04-02T04:27:25.423Z,73.12
2023-04-02T04:30:22.995Z,73.29
2023-04-02T04:33:22.918Z,73.23
2023-04-02T04:36:28.563Z,73.19
2023-04-02T04:39:29.679Z,73.36
2023-04-02T04:42:25.616Z,73.42
2023-04-02T04:45:29.958Z,73.39
2023-04-02T04:48:26.661Z,73.57
2023-04-02T04:51:25.032Z,73.40
2023-04-02T04:54:18.566Z,73.36
2023-04-02T04:57:26.736Z,73.54
2023-04-02T05:00:21.940Z,73.64
2023-04-02T05:03:22.440Z,73.80
2023-04-02T05:06:23.445Z,73.82
2023-04-02T05:09:23.881Z,73.97
2023-04-02T05:12:27.670Z,74.00
2023-04-02T05:15:27.574Z,73.82
2023-04-02T05:18:29.503Z,73.77
2023-04-02T05:21:27.132Z,73.88
2023-04-02T05:24:37.523Z,73.77
2023-04-02T05:27:29.631Z,73.65
2023-04-02T05:30:39.832Z,73.74
2023-04-02T05:33:34.218Z,73.66
2023-04-02T05:36:26.399Z,73.59
2023-04-02T05:39:24.682Z,73.64
2023-04-02T05:42:22.826Z,73.54
2023-04-02T05:45:25.509Z,73.61
2023-04-02T05:48:21.851Z,73.60
2023-04-02T05:51:19.940Z,73.60
2023-04-02T05:53:59.630Z,73.47
2023-04-02T05:56:55.153Z,73.31
2023-04-02T05:59:51.416Z,73.24
2023-04-02T06:02:52.996Z,72.84
2023-04-02T06:05:47.166Z,72.70
2023-04-02T06:08:45.146Z,72.72
2023-04-02T06:11:42.330Z,72.81
2023-04-02T06:14:34.498Z,72.65
2023-04-02T06:17:27.403Z,72.75
2023-04-02T06:20:21.999Z,72.66
2023-04-02T06:23:20.500Z,72.42
2023-04-02T06:26:18.004Z,72.42
2023-04-02T06:29:15.828Z,72.16
2023-04-02T06:32:09.908Z,71.79
2023-04-02T06:35:01.946Z,71.75
2023-04-02T06:37:58.030Z,71.70
2023-04-02T06:40:54.053Z,71.64
2023-04-02T06:43:50.743Z,71.56
2023-04-02T06:46:49.514Z,71.58
2023-04-02T06:49:47.068Z,71.46
2023-04-02T06:52:45.958Z,71.59
2023-04-02T06:55:49.086Z,71.46
2023-04-02T06:58:41.161Z,71.36
2023-04-02T07:01:37.132Z,71.49
2023-04-02T07:04:29.389Z,71.48
2023-04-02T07:07:21.464Z,71.30
2023-04-02T07:10:14.095Z,71.48
2023-04-02T07:13:06.403Z,71.43
2023-04-02T07:15:58.478Z,71.29
2023-04-02T07:18:50.967Z,71.49
2023-04-02T07:21:42.987Z,71.55
2023-04-02T07:24:35.040Z,71.75
2023-04-02T07:27:27.995Z,71.82
2023-04-02T07:30:20.258Z,71.74
2023-04-02T07:33:16.399Z,71.50
2023-04-02T07:36:09.150Z,71.36
2023-04-02T07:39:02.015Z,71.50
2023-04-02T07:41:59.181Z,71.52
2023-04-02T07:44:52.030Z,71.38
2023-04-02T07:47:44.867Z,71.46
2023-04-02T07:50:37.615Z,71.39
2023-04-02T07:53:30.543Z,71.63
2023-04-02T07:56:23.402Z,71.89
2023-04-02T07:59:15.411Z,71.74
2023-04-02T08:02:07.658Z,71.76
2023-04-02T08:04:59.788Z,71.98
2023-04-02T08:07:56.963Z,71.77
2023-04-02T08:10:49.343Z,71.34
2023-04-02T08:13:41.584Z,71.15
2023-04-02T08:16:48.456Z,70.84
2023-04-02T08:19:53.815Z,70.64
2023-04-02T08:22:47.159Z,70.64
2023-04-02T08:25:39.147Z,70.59
2023-04-02T08:28:22.936Z,70.58
2023-04-02T08:31:14.965Z,70.09
2023-04-02T08:34:07.236Z,70.17
2023-04-02T08:37:00.658Z,70.46
2023-04-02T08:39:52.632Z,70.13
2023-04-02T08:42:53.912Z,70.28
2023-04-02T08:45:59.008Z,70.32
2023-04-02T08:48:56.840Z,70.15
2023-04-02T08:51:49.860Z,69.85
2023-04-02T08:54:43.641Z,70.06
2023-04-02T08:57:41.236Z,70.11
2023-04-02T09:00:38.109Z,70.06
2023-04-02T09:03:36.586Z,69.68
2023-04-02T09:06:29.571Z,69.53
2023-04-02T09:09:23.345Z,69.93
2023-04-02T09:12:21.385Z,69.87
2023-04-02T09:15:24.696Z,69.77
2023-04-02T09:18:18.762Z,69.53
2023-04-02T09:21:34.444Z,69.77
2023-04-02T09:24:26.579Z,69.52
2023-04-02T09:27:22.833Z,69.52
2023-04-02T09:30:09.128Z,69.45
2023-04-02T09:33:07.254Z,69.37
2023-04-02T09:35:59.702Z,69.41
2023-04-02T09:39:06.502Z,69.75
2023-04-02T09:41:39.176Z,69.61
2023-04-02T09:44:32.327Z,69.38
2023-04-02T09:47:28.939Z,69.27
2023-04-02T09:50:27.950Z,69.02
2023-04-02T09:53:35.703Z,69.33
2023-04-02T09:56:17.508Z,69.47
2023-04-02T09:59:06.147Z,69.79
2023-04-02T10:01:49.168Z,69.44
2023-04-02T10:04:44.836Z,69.41
2023-04-02T10:07:34.854Z,69.54
2023-04-02T10:10:37.053Z,69.58
2023-04-02T10:13:32.938Z,69.86
2023-04-02T10:16:19.199Z,69.96
2023-04-02T10:19:01.917Z,69.95
2023-04-02T10:21:45.223Z,70.07
2023-04-02T10:24:20.646Z,69.90
2023-04-02T10:27:22.846Z,70.09
2023-04-02T10:30:15.897Z,70.10
2023-04-02T10:32:56.528Z,70.30
2023-04-02T10:35:55.473Z,70.23
2023-04-02T10:38:49.680Z,70.10
2023-04-02T10:41:36.556Z,70.12
2023-04-02T10:44:44.538Z,70.24
2023-04-02T10:47:44.707Z,70.17
2023-04-02T10:50:45.744Z,70.05
2023-04-02T10:53:45.000Z,70.11
2023-04-02T10:56:50.179Z,70.14
2023-04-02T10:59:49.070Z,69.72
2023-04-02T11:02:50.074Z,69.90
2023-04-02T11:05:47.021Z,69.97
2023-04-02T11:08:43.245Z,70.02
2023-04-02T11:11:41.110Z,70.25
2023-04-02T11:14:34.286Z,70.32
2023-04-02T11:17:26.714Z,70.21
2023-04-02T11:21:04.703Z,69.98
2023-04-02T11:24:02.841Z,70.11
2023-04-02T11:26:55.312Z,70.06
2023-04-02T11:29:49.832Z,69.86
2023-04-02T11:32:43.640Z,69.84
2023-04-02T11:35:42.142Z,69.67
2023-04-02T11:38:55.001Z,69.93
2023-04-02T11:42:06.695Z,69.95
2023-04-02T11:44:49.001Z,70.24
2023-04-02T11:47:41.040Z,69.96
2023-04-02T11:50:35.546Z,69.54
2023-04-02T11:53:32.447Z,69.53
2023-04-02T11:56:48.268Z,69.50
2023-04-02T11:59:51.530Z,69.85
2023-04-02T12:02:59.456Z,70.23
2023-04-02T12:06:00.457Z,70.04
2023-04-02T12:09:05.973Z,68.98
2023-04-02T12:11:58.030Z,68.94
2023-04-02T12:14:52.877Z,69.22
2023-04-02T12:17:45.037Z,69.02
2023-04-02T12:20:37.810Z,69.29
2023-04-02T12:23:32.898Z,69.22
2023-04-02T12:26:37.455Z,69.28
2023-04-02T12:29:30.835Z,69.26
2023-04-02T12:32:30.708Z,69.13
2023-04-02T12:35:35.941Z,69.14
2023-04-02T12:38:29.838Z,69.34
2023-04-02T12:41:26.972Z,69.52
2023-04-02T12:44:21.681Z,69.58
2023-04-02T12:47:16.011Z,69.36
2023-04-02T12:50:15.462Z,69.01
2023-04-02T12:53:20.225Z,69.11
2023-04-02T12:55:56.807Z,68.81
2023-04-02T12:58:39.699Z,68.70
2023-04-02T13:01:19.457Z,68.96
2023-04-02T13:04:09.109Z,69.25
2023-04-02T13:07:02.092Z,69.30
2023-04-02T13:09:46.769Z,69.29
2023-04-02T13:12:41.122Z,69.33
2023-04-02T13:15:27.183Z,69.27
2023-04-02T13:18:24.840Z,69.34
2023-04-02T13:21:01.004Z,69.58
2023-04-02T13:23:42.355Z,69.47
2023-04-02T13:26:34.723Z,69.30
2023-04-02T13:29:18.075Z,69.24
2023-04-02T13:32:14.420Z,69.50
2023-04-02T13:35:08.048Z,69.51
2023-04-02T13:37:40.103Z,69.42
2023-04-02T13:40:29.837Z,69.45
2023-04-02T13:43:22.721Z,69.33
2023-04-02T13:46:00.971Z,69.18
2023-04-02T13:48:33.030Z,69.02
2023-04-02T13:51:31.715Z,69.02
2023-04-02T13:54:03.957Z,69.14
2023-04-02T13:56:57.440Z,69.37
2023-04-02T13:59:49.463Z,69.07
2023-04-02T14:02:46.284Z,68.98
2023-04-02T14:05:49.054Z,68.90
2023-04-02T14:08:53.427Z,68.91
2023-04-02T14:11:46.923Z,68.93
2023-04-02T14:14:55.831Z,68.86
2023-04-02T14:17:47.412Z,68.94
2023-04-02T14:20:39.228Z,68.85
2023-04-02T14:23:52.653Z,68.69
2023-04-02T14:27:01.995Z,68.56
2023-04-02T14:30:03.106Z,68.62
2023-04-02T14:32:42.824Z,68.68
2023-04-02T14:35:38.288Z,68.86
2023-04-02T14:38:30.400Z,68.79
2023-04-02T14:41:28.859Z,68.64
2023-04-02T14:44:12.321Z,68.60
2023-04-02T14:47:17.498Z,68.66
2023-04-02T14:49:57.529Z,68.84
2023-04-02T14:52:56.996Z,68.93
2023-04-02T14:55:48.345Z,68.92
2023-04-02T14:58:24.347Z,68.60
2023-04-02T15:01:05.715Z,68.48
2023-04-02T15:03:55.516Z,68.58
2023-04-02T15:06:38.061Z,68.33
2023-04-02T15:09:33.245Z,68.37
2023-04-02T15:12:29.879Z,68.27
2023-04-02T15:15:15.296Z,68.22
2023-04-02T15:18:00.580Z,68.14
2023-04-02T15:21:00.771Z,68.32
2023-04-02T15:23:50.974Z,68.34
2023-04-02T15:26:50.599Z,68.29
2023-04-02T15:29:35.689Z,68.15
2023-04-02T15:32:37.157Z,67.87
2023-04-02T15:35:37.721Z,67.59
2023-04-02T15:38:15.924Z,67.79
2023-04-02T15:41:15.426Z,68.02
2023-04-02T15:44:00.238Z,67.93
2023-04-02T15:46:55.539Z,67.69
2023-04-02T15:49:56.304Z,67.68
2023-04-02T15:52:55.316Z,67.71
2023-04-02T15:55:51.040Z,67.59
2023-04-02T15:58:54.745Z,67.55
2023-04-02T16:01:55.228Z,67.55
2023-04-02T16:04:44.154Z,67.70
2023-04-02T16:07:54.697Z,67.67
2023-04-02T16:10:42.522Z,67.69
2023-04-02T16:13:37.176Z,67.60
2023-04-02T16:16:16.208Z,67.57
2023-04-02T16:18:57.610Z,67.74
2023-04-02T16:21:44.384Z,67.77
2023-04-02T16:24:36.634Z,67.49
2023-04-02T16:27:35.649Z,67.41
2023-04-02T16:30:35.126Z,67.33
2023-04-02T16:33:33.832Z,67.36
2023-04-02T16:36:17.620Z,67.46
2023-04-02T16:39:23.740Z,67.21
2023-04-02T16:42:11.141Z,67.42
2023-04-02T16:45:01.418Z,67.49
2023-04-02T16:48:05.558Z,67.49
2023-04-02T16:51:10.811Z,67.26
2023-04-02T16:54:08.841Z,67.21
2023-04-02T16:57:19.984Z,67.26
2023-04-02T17:00:02.951Z,67.23
2023-04-02T17:03:08.116Z,67.45
2023-04-02T17:06:06.696Z,67.46
2023-04-02T17:08:48.245Z,67.69
2023-04-02T17:11:46.359Z,67.61
2023-04-02T17:14:43.943Z,67.82
2023-04-02T17:17:36.256Z,67.66
2023-04-02T17:20:29.245Z,67.86
2023-04-02T17:23:22.027Z,68.13
2023-04-02T17:26:17.249Z,67.86
2023-04-02T17:29:17.103Z,67.95
2023-04-02T17:31:53.426Z,67.94
2023-04-02T17:34:31.238Z,67.98
2023-04-02T17:37:23.035Z,67.72
2023-04-02T17:40:27.095Z,67.86
2023-04-02T17:43:32.401Z,67.76
2023-04-02T17:46:35.546Z,67.84
2023-04-02T17:49:32.927Z,68.02
2023-04-02T17:52:13.173Z,67.96
2023-04-02T17:55:15.457Z,67.86
2023-04-02T17:58:19.830Z,67.89
2023-04-02T18:01:07.685Z,67.90
2023-04-02T18:03:53.601Z,68.02
2023-04-02T18:06:33.520Z,67.88
2023-04-02T18:09:37.286Z,68.03
2023-04-02T18:12:45.732Z,68.14
2023-04-02T18:16:07.644Z,68.26
2023-04-02T18:19:16.092Z,68.41
2023-04-02T18:21:56.126Z,68.58
2023-04-02T18:24:46.289Z,68.83
2023-04-02T18:27:41.845Z,68.86
2023-04-02T18:30:27.988Z,69.07
2023-04-02T18:33:23.222Z,69.11
2023-04-02T18:36:21.872Z,69.28
2023-04-02T18:39:24.624Z,69.29
2023-04-02T18:42:06.590Z,69.51
2023-04-02T18:44:59.788Z,69.09
2023-04-02T18:48:03.433Z,69.24
2023-04-02T18:50:47.052Z,69.41
2023-04-02T18:53:40.763Z,69.51
2023-04-02T18:56:17.317Z,69.19
2023-04-02T18:59:02.337Z,69.25
2023-04-02T19:01:57.186Z,69.32
2023-04-02T19:04:40.128Z,69.31
2023-04-02T19:07:19.623Z,69.28
2023-04-02T19:10:25.054Z,69.28
2023-04-02T19:13:19.363Z,69.30
2023-04-02T19:16:42.944Z,69.45
2023-04-02T19:19:39.986Z,69.56
2023-04-02T19:22:34.979Z,69.65
2023-04-02T19:25:58.902Z,69.75
2023-04-02T19:29:13.102Z,69.61
2023-04-02T19:31:57.941Z,69.77
2023-04-02T19:34:44.805Z,69.78
2023-04-02T19:37:27.180Z,69.81
2023-04-02T19:40:29.888Z,69.96
2023-04-02T19:43:22.290Z,69.99
2023-04-02T19:46:05.787Z,69.95
2023-04-02T19:48:46.749Z,69.79
2023-04-02T19:51:21.364Z,69.78
2023-04-02T19:53:58.951Z,69.78
2023-04-02T19:56:51.428Z,69.72
2023-04-02T19:59:43.769Z,69.58
2023-04-02T20:02:18.005Z,69.78
2023-04-02T20:05:11.450Z,69.97
2023-04-02T20:08:03.682Z,69.91
2023-04-02T20:10:58.408Z,69.76
2023-04-02T20:13:50.761Z,69.84
2023-04-02T20:16:44.414Z,69.88
2023-04-02T20:19:37.366Z,69.96
2023-04-02T20:22:29.414Z,69.79
2023-04-02T20:25:21.328Z,69.84
2023-04-02T20:28:13.439Z,70.18
2023-04-02T20:30:49.943Z,70.35
2023-04-02T20:33:42.631Z,70.49
2023-04-02T20:36:34.813Z,70.49
2023-04-02T20:39:28.718Z,70.47
2023-04-02T20:42:20.931Z,70.46
2023-04-02T20:45:13.894Z,70.39
2023-04-02T20:48:06.986Z,70.51
2023-04-02T20:50:59.585Z,70.46
2023-04-02T20:53:52.196Z,70.46
2023-04-02T20:56:44.658Z,70.32
2023-04-02T20:59:36.632Z,70.27
2023-04-02T21:02:28.639Z,70.33
2023-04-02T21:05:20.742Z,70.33
2023-04-02T21:08:12.715Z,70.24
2023-04-02T21:11:06.553Z,70.19
2023-04-02T21:13:58.716Z,70.11
2023-04-02T21:16:50.597Z,70.12
2023-04-02T21:19:42.551Z,70.18
2023-04-02T21:22:34.557Z,70.23
2023-04-02T21:25:26.532Z,70.22
2023-04-02T21:28:18.496Z,70.45
2023-04-02T21:31:12.239Z,70.68
2023-04-02T21:34:05.243Z,70.65
2023-04-02T21:36:57.230Z,70.82
2023-04-02T21:39:49.243Z,70.98
2023-04-02T21:42:41.420Z,70.57
2023-04-02T21:45:22.643Z,70.41
2023-04-02T21:48:14.775Z,70.50
2023-04-02T21:50:46.632Z,70.57
2023-04-02T21:53:18.499Z,70.65
2023-04-02T21:56:13.257Z,70.81
2023-04-02T21:59:06.756Z,70.58
2023-04-02T22:01:58.933Z,70.59
2023-04-02T22:04:34.318Z,70.51
2023-04-02T22:07:08.568Z,70.36
2023-04-02T22:09:40.630Z,70.47
2023-04-02T22:12:32.836Z,70.53
2023-04-02T22:15:25.660Z,70.74
2023-04-02T22:18:17.758Z,70.74
2023-04-02T22:20:56.524Z,70.84
2023-04-02T22:23:49.361Z,70.83
2023-04-02T22:26:41.802Z,70.95
2023-04-02T22:29:19.094Z,70.94
2023-04-02T22:31:53.574Z,70.94
2023-04-02T22:34:45.796Z,70.79
2023-04-02T22:37:37.917Z,70.84
2023-04-02T22:40:30.782Z,70.85
2023-04-02T22:43:14.140Z,71.05
2023-04-02T22:45:59.243Z,71.00
2023-04-02T22:48:40.804Z,71.18
2023-04-02T22:51:32.913Z,71.09
2023-04-02T22:54:24.937Z,71.24
2023-04-02T22:57:17.107Z,71.25
2023-04-02T23:00:13.402Z,71.39
2023-04-02T23:03:06.133Z,71.43
2023-04-02T23:06:06.079Z,71.34
2023-04-02T23:08:58.127Z,71.38
2023-04-02T23:11:50.365Z,71.40
2023-04-02T23:14:42.371Z,71.33
2023-04-02T23:17:35.840Z,71.28
2023-04-02T23:20:27.909Z,71.29
2023-04-02T23:23:19.887Z,71.52
2023-04-02T23:26:15.442Z,71.42
2023-04-02T23:29:07.533Z,71.23
2023-04-02T23:31:59.515Z,71.46
2023-04-02T23:34:51.733Z,71.54
2023-04-02T23:37:43.751Z,71.26
2023-04-02T23:40:35.955Z,71.36
2023-04-02T23:43:28.281Z,71.06
2023-04-02T23:46:20.527Z,71.16
2023-04-02T23:49:13.568Z,71.31
2023-04-02T23:52:05.628Z,71.03
2023-04-02T23:54:39.954Z,70.95
2023-04-02T23:57:32.095Z,70.96
